createdAt,value
2018-06-01T00:00:41.744Z,67.91
2018-06-01T00:03:11.002Z,67.54
2018-06-01T00:05:39.573Z,66.91
2018-06-01T00:08:09.242Z,66.37
2018-06-01T00:10:37.967Z,66.21
2018-06-01T00:13:06.553Z,65.92
2018-06-01T00:15:35.549Z,65.78
2018-06-01T00:18:04.090Z,65.38
2018-06-01T00:20:33.547Z,65.15
2018-06-01T00:23:02.109Z,65.45
2018-06-01T00:25:30.614Z,65.57
2018-06-01T00:27:59.113Z,65.90
2018-06-01T00:30:27.650Z,65.49
2018-06-01T00:32:56.143Z,65.61
2018-06-01T00:35:24.635Z,66.21
2018-06-01T00:37:53.474Z,66.86
2018-06-01T00:40:21.978Z,66.43
2018-06-01T00:42:50.682Z,66.73
2018-06-01T00:45:19.403Z,67.25
2018-06-01T00:47:48.715Z,67.08
2018-06-01T00:50:17.988Z,67.11
2018-06-01T00:52:48.189Z,66.83
2018-06-01T00:55:25.734Z,67.09
2018-06-01T00:57:55.221Z,66.53
2018-06-01T01:00:24.556Z,66.87
2018-06-01T01:02:53.057Z,66.65
2018-06-01T01:05:21.610Z,66.60
2018-06-01T01:07:50.106Z,66.98
2018-06-01T01:10:18.710Z,67.13
2018-06-01T01:12:47.269Z,67.18
2018-06-01T01:15:15.919Z,67.02
2018-06-01T01:17:45.190Z,66.83
2018-06-01T01:20:13.737Z,66.67
2018-06-01T01:22:42.446Z,66.34
2018-06-01T01:25:10.946Z,66.25
2018-06-01T01:27:39.650Z,65.90
2018-06-01T01:30:08.150Z,65.69
2018-06-01T01:32:37.414Z,65.66
2018-06-01T01:35:06.279Z,65.17
2018-06-01T01:37:34.789Z,64.38
2018-06-01T01:40:03.305Z,64.24
2018-06-01T01:42:32.789Z,64.15
2018-06-01T01:45:02.056Z,64.21
2018-06-01T01:47:30.585Z,64.25
2018-06-01T01:50:00.295Z,63.95
2018-06-01T01:52:29.814Z,64.10
2018-06-01T01:54:58.479Z,64.10
2018-06-01T01:57:28.178Z,64.41
2018-06-01T01:59:57.442Z,64.24
2018-06-01T02:02:25.944Z,64.45
2018-06-01T02:04:54.485Z,65.10
2018-06-01T02:07:23.459Z,64.80
2018-06-01T02:09:52.713Z,65.08
2018-06-01T02:12:21.257Z,65.10
2018-06-01T02:14:49.762Z,65.26
2018-06-01T02:17:18.270Z,64.86
2018-06-01T02:19:47.241Z,64.87
2018-06-01T02:22:16.554Z,65.14
2018-06-01T02:24:45.046Z,65.69
2018-06-01T02:27:13.690Z,65.78
2018-06-01T02:29:42.193Z,65.49
2018-06-01T02:32:10.690Z,65.59
2018-06-01T02:34:39.230Z,65.95
2018-06-01T02:37:08.227Z,66.01
2018-06-01T02:39:36.721Z,65.80
2018-06-01T02:42:05.287Z,65.84
2018-06-01T02:44:33.781Z,65.70
2018-06-01T02:47:02.306Z,65.55
2018-06-01T02:49:31.847Z,65.85
2018-06-01T02:52:00.583Z,65.60
2018-06-01T02:54:30.476Z,65.90
2018-06-01T02:56:59.243Z,66.05
2018-06-01T02:59:27.734Z,65.43
2018-06-01T03:01:56.237Z,65.06
2018-06-01T03:04:25.694Z,65.12
2018-06-01T03:07:18.715Z,65.28
2018-06-01T03:09:48.704Z,65.00
2018-06-01T03:12:17.388Z,65.02
2018-06-01T03:14:45.893Z,64.66
2018-06-01T03:17:14.561Z,65.52
2018-06-01T03:19:43.058Z,65.24
2018-06-01T03:22:11.570Z,64.25
2018-06-01T03:24:40.912Z,64.47
2018-06-01T03:27:09.406Z,64.73
2018-06-01T03:29:37.901Z,64.84
2018-06-01T03:32:06.802Z,64.83
2018-06-01T03:34:36.811Z,64.92
2018-06-01T03:37:05.337Z,64.26
2018-06-01T03:39:33.875Z,63.92
2018-06-01T03:42:02.635Z,63.94
2018-06-01T03:44:31.133Z,63.44
2018-06-01T03:46:59.946Z,63.23
2018-06-01T03:49:29.210Z,62.98
2018-06-01T03:51:57.783Z,62.74
2018-06-01T03:54:26.869Z,62.34
2018-06-01T03:56:55.518Z,61.96
2018-06-01T03:59:25.765Z,61.77
2018-06-01T04:01:54.329Z,61.66
2018-06-01T04:04:24.190Z,61.68
2018-06-01T04:06:52.678Z,61.06
2018-06-01T04:09:21.766Z,61.66
2018-06-01T04:11:50.277Z,61.31
2018-06-01T04:14:19.542Z,61.22
2018-06-01T04:16:48.273Z,60.89
2018-06-01T04:19:17.632Z,60.55
2018-06-01T04:21:46.130Z,60.15
2018-06-01T04:24:15.064Z,60.38
2018-06-01T04:26:43.574Z,59.87
2018-06-01T04:29:12.225Z,59.04
2018-06-01T04:31:40.997Z,58.86
2018-06-01T04:34:09.752Z,58.01
2018-06-01T04:36:38.257Z,58.19
2018-06-01T04:39:07.262Z,57.38
2018-06-01T04:41:36.662Z,57.53
2018-06-01T04:44:05.950Z,57.01
2018-06-01T04:46:35.283Z,56.68
2018-06-01T04:49:04.829Z,55.00
2018-06-01T04:51:33.414Z,56.03
2018-06-01T04:54:02.107Z,52.22
2018-06-01T04:56:30.618Z,51.46
2018-06-01T04:58:59.114Z,51.62
2018-06-01T05:01:28.674Z,49.66
2018-06-01T05:03:57.170Z,48.85
2018-06-01T05:06:25.686Z,48.87
2018-06-01T05:08:55.278Z,47.76
2018-06-01T05:11:23.775Z,45.84
2018-06-01T05:13:53.096Z,44.99
2018-06-01T05:16:21.646Z,44.21
2018-06-01T05:18:50.395Z,44.08
2018-06-01T05:21:19.081Z,41.73
2018-06-01T05:23:47.754Z,42.18
2018-06-01T05:26:16.253Z,42.72
2018-06-01T05:28:44.962Z,42.47
2018-06-01T05:31:14.465Z,42.31
2018-06-01T05:33:43.073Z,44.82
2018-06-01T05:36:11.585Z,41.58
2018-06-01T05:38:40.594Z,41.70
2018-06-01T05:41:09.111Z,42.09
2018-06-01T05:43:37.605Z,42.32
2018-06-01T05:46:07.410Z,41.99
2018-06-01T05:48:36.682Z,40.89
2018-06-01T05:51:06.131Z,38.77
2018-06-01T05:53:35.438Z,39.71
2018-06-01T05:56:03.973Z,37.97
2018-06-01T05:58:32.635Z,38.29
2018-06-01T06:01:01.306Z,37.75
2018-06-01T06:03:29.809Z,38.22
2018-06-01T06:05:58.386Z,38.46
2018-06-01T06:08:27.546Z,37.66
2018-06-01T06:10:56.806Z,38.23
2018-06-01T06:13:25.370Z,36.57
2018-06-01T06:15:54.054Z,36.63
2018-06-01T06:18:22.549Z,36.41
2018-06-01T06:20:51.217Z,36.48
2018-06-01T06:23:19.937Z,37.27
2018-06-01T06:25:48.555Z,36.83
2018-06-01T06:28:17.882Z,36.29
2018-06-01T06:30:46.610Z,35.35
2018-06-01T06:33:15.365Z,35.70
2018-06-01T06:35:44.050Z,35.82
2018-06-01T06:38:13.043Z,35.54
2018-06-01T06:40:41.545Z,34.66
2018-06-01T06:43:10.052Z,34.26
2018-06-01T06:45:39.462Z,34.14
2018-06-01T06:48:08.916Z,32.32
2018-06-01T06:50:37.425Z,32.37
2018-06-01T06:53:06.214Z,31.76
2018-06-01T06:55:34.919Z,32.21
2018-06-01T06:58:04.230Z,31.67
2018-06-01T07:00:33.709Z,31.40
2018-06-01T07:03:02.974Z,31.32
2018-06-01T07:05:31.479Z,31.66
2018-06-01T07:08:00.041Z,30.61
2018-06-01T07:10:28.534Z,31.89
2018-06-01T07:12:57.976Z,31.11
2018-06-01T07:15:26.570Z,30.86
2018-06-01T07:17:55.293Z,30.83
2018-06-01T07:20:23.809Z,29.67
2018-06-01T07:22:53.062Z,30.42
2018-06-01T07:25:21.484Z,29.92
2018-06-01T07:27:50.693Z,30.29
2018-06-01T07:30:20.126Z,28.88
2018-06-01T07:32:48.561Z,28.94
2018-06-01T07:35:16.989Z,30.01
2018-06-01T07:37:45.790Z,29.41
2018-06-01T07:40:14.230Z,29.07
2018-06-01T07:42:43.425Z,29.35
2018-06-01T07:45:12.789Z,28.03
2018-06-01T07:47:41.232Z,28.42
2018-06-01T07:50:09.671Z,29.11
2018-06-01T07:52:38.299Z,30.86
2018-06-01T07:55:06.733Z,30.11
2018-06-01T07:57:35.156Z,28.54
2018-06-01T08:00:03.837Z,29.00
2018-06-01T08:02:32.272Z,28.32
2018-06-01T08:05:00.704Z,28.45
2018-06-01T08:07:29.393Z,29.02
2018-06-01T08:09:57.855Z,25.91
2018-06-01T08:12:26.309Z,27.84
2018-06-01T08:14:55.566Z,27.14
2018-06-01T08:17:24.024Z,25.08
2018-06-01T08:19:52.482Z,27.17
2018-06-01T08:22:20.980Z,26.14
2018-06-01T08:24:49.437Z,26.19
2018-06-01T08:27:17.892Z,23.79
2018-06-01T08:29:46.640Z,23.59
2018-06-01T08:32:15.161Z,21.53
2018-06-01T08:34:43.637Z,23.08
2018-06-01T08:37:12.278Z,22.50
2018-06-01T08:39:40.727Z,23.09
2018-06-01T08:42:09.178Z,21.84
2018-06-01T08:44:37.839Z,22.32
2018-06-01T08:47:06.301Z,21.91
2018-06-01T08:49:34.752Z,21.86
2018-06-01T08:52:03.288Z,22.27
2018-06-01T08:54:32.085Z,21.86
2018-06-01T08:57:00.536Z,20.24
2018-06-01T08:59:29.329Z,21.19
2018-06-01T09:01:57.775Z,21.35
2018-06-01T09:04:26.241Z,21.86
2018-06-01T09:06:55.954Z,20.01
2018-06-01T09:09:25.177Z,21.68
2018-06-01T09:11:53.657Z,19.53
2018-06-01T09:14:22.188Z,21.48
2018-06-01T09:16:52.210Z,20.59
2018-06-01T09:19:20.734Z,21.67
2018-06-01T09:21:49.307Z,20.83
2018-06-01T09:24:17.825Z,21.58
2018-06-01T09:26:46.530Z,23.26
2018-06-01T09:29:15.118Z,22.19
2018-06-01T09:31:45.142Z,22.24
2018-06-01T09:34:13.662Z,21.14
2018-06-01T09:36:42.445Z,21.75
2018-06-01T09:39:10.912Z,21.31
2018-06-01T09:41:40.137Z,20.90
2018-06-01T09:44:08.645Z,21.44
2018-06-01T09:46:37.149Z,19.94
2018-06-01T09:49:05.590Z,20.70
2018-06-01T09:51:34.217Z,20.82
2018-06-01T09:54:02.659Z,21.39
2018-06-01T09:56:31.104Z,22.92
2018-06-01T09:59:00.485Z,20.72
2018-06-01T10:01:29.718Z,23.69
2018-06-01T10:03:58.178Z,22.25
2018-06-01T10:06:27.625Z,18.72
2018-06-01T10:08:56.093Z,20.29
2018-06-01T10:11:24.553Z,21.33
2018-06-01T10:13:53.073Z,23.00
2018-06-01T10:16:21.524Z,22.24
2018-06-01T10:18:49.992Z,23.10
2018-06-01T10:21:19.272Z,22.48
2018-06-01T10:23:48.492Z,23.21
2018-06-01T10:26:17.721Z,23.70
2018-06-01T10:28:46.241Z,24.67
2018-06-01T10:31:14.698Z,23.86
2018-06-01T10:33:43.229Z,23.66
2018-06-01T10:36:12.709Z,25.68
2018-06-01T10:38:42.993Z,25.16
2018-06-01T10:41:11.511Z,22.02
2018-06-01T10:43:40.090Z,24.23
2018-06-01T10:46:08.877Z,23.24
2018-06-01T10:48:37.406Z,25.76
2018-06-01T10:51:06.198Z,22.47
2018-06-01T10:53:34.726Z,23.11
2018-06-01T10:56:03.253Z,24.66
2018-06-01T10:58:31.999Z,23.22
2018-06-01T11:01:00.537Z,24.09
2018-06-01T11:03:29.054Z,23.43
2018-06-01T11:05:57.777Z,22.76
2018-06-01T11:08:27.053Z,21.60
2018-06-01T11:10:55.582Z,21.36
2018-06-01T11:13:24.558Z,20.46
2018-06-01T11:15:53.247Z,21.30
2018-06-01T11:18:21.990Z,21.36
2018-06-01T11:20:50.717Z,22.56
2018-06-01T11:23:20.284Z,22.91
2018-06-01T11:25:48.970Z,23.21
2018-06-01T11:28:17.550Z,21.38
2018-06-01T11:30:46.339Z,22.14
2018-06-01T11:33:15.026Z,20.89
2018-06-01T11:35:43.753Z,19.88
2018-06-01T11:38:13.045Z,21.19
2018-06-01T11:40:42.333Z,21.82
2018-06-01T11:43:10.898Z,22.69
2018-06-01T11:45:39.413Z,22.36
2018-06-01T11:48:08.885Z,23.41
2018-06-01T11:50:38.966Z,22.53
2018-06-01T11:53:07.502Z,22.29
2018-06-01T11:55:36.787Z,23.09
2018-06-01T11:58:05.638Z,22.79
2018-06-01T12:00:34.251Z,23.59
2018-06-01T12:03:02.937Z,23.87
2018-06-01T12:05:31.601Z,21.63
2018-06-01T12:08:00.130Z,22.96
2018-06-01T12:10:29.411Z,21.12
2018-06-01T12:12:57.986Z,20.40
2018-06-01T12:15:26.781Z,20.13
2018-06-01T12:17:56.081Z,19.50
2018-06-01T12:20:24.656Z,17.58
2018-06-01T12:22:53.452Z,19.75
2018-06-01T12:25:22.160Z,17.98
2018-06-01T12:27:51.497Z,15.50
2018-06-01T12:30:20.015Z,17.27
2018-06-01T12:32:48.666Z,16.70
2018-06-01T12:35:17.525Z,16.81
2018-06-01T12:37:46.822Z,16.99
2018-06-01T12:40:16.167Z,16.95
2018-06-01T12:42:44.918Z,16.34
2018-06-01T12:45:13.607Z,17.77
2018-06-01T12:47:42.138Z,21.16
2018-06-01T12:50:10.865Z,22.45
2018-06-01T12:52:40.150Z,22.75
2018-06-01T12:55:08.674Z,22.90
2018-06-01T12:57:37.507Z,21.61
2018-06-01T13:00:06.107Z,21.68
2018-06-01T13:02:35.592Z,19.89
2018-06-01T13:05:04.853Z,20.14
2018-06-01T13:07:33.381Z,19.93
2018-06-01T13:10:01.911Z,20.52
2018-06-01T13:12:30.513Z,18.76
2018-06-01T13:14:59.086Z,20.37
2018-06-01T13:17:27.610Z,15.55
2018-06-01T13:19:56.403Z,20.71
2018-06-01T13:22:25.046Z,22.39
2018-06-01T13:24:53.571Z,21.59
2018-06-01T13:27:22.447Z,21.33
2018-06-01T13:29:51.774Z,20.24
2018-06-01T13:32:20.306Z,21.52
2018-06-01T13:34:49.325Z,22.02
2018-06-01T13:37:17.858Z,22.04
2018-06-01T13:39:46.389Z,22.83
2018-06-01T13:42:14.995Z,22.25
2018-06-01T13:44:44.354Z,23.77
2018-06-01T13:47:12.874Z,22.59
2018-06-01T13:49:42.508Z,21.62
2018-06-01T13:52:11.046Z,20.08
2018-06-01T13:54:40.366Z,21.46
2018-06-01T13:57:10.876Z,19.42
2018-06-01T13:59:39.582Z,19.37
2018-06-01T14:02:08.212Z,20.28
2018-06-01T14:04:37.138Z,19.01
2018-06-01T14:07:05.729Z,19.65
2018-06-01T14:09:34.245Z,19.02
2018-06-01T14:12:03.067Z,19.60
2018-06-01T14:14:32.359Z,18.89
2018-06-01T14:17:01.737Z,19.69
2018-06-01T14:19:30.779Z,20.60
2018-06-01T14:21:59.418Z,20.37
2018-06-01T14:24:29.457Z,20.48
2018-06-01T14:26:59.078Z,20.59
2018-06-01T14:29:28.365Z,20.47
2018-06-01T14:31:57.844Z,19.92
2018-06-01T14:34:26.424Z,20.85
2018-06-01T14:36:54.940Z,21.01
2018-06-01T14:39:24.234Z,21.91
2018-06-01T14:41:53.585Z,23.17
2018-06-01T14:44:22.127Z,24.07
2018-06-01T14:46:50.847Z,25.13
2018-06-01T14:49:19.418Z,24.78
2018-06-01T14:51:47.953Z,23.37
2018-06-01T14:54:16.474Z,23.33
2018-06-01T14:56:45.450Z,24.36
2018-06-01T14:59:13.982Z,24.60
2018-06-01T15:01:42.515Z,25.62
2018-06-01T15:04:11.886Z,27.57
2018-06-01T15:06:40.444Z,28.10
2018-06-01T15:09:09.054Z,28.13
2018-06-01T15:11:37.831Z,28.25
2018-06-01T15:14:06.418Z,28.92
2018-06-01T15:16:35.201Z,24.74
2018-06-01T15:19:04.864Z,24.77
2018-06-01T15:21:33.467Z,22.53
2018-06-01T15:24:01.998Z,23.37
2018-06-01T15:26:31.787Z,22.49
2018-06-01T15:29:00.333Z,21.52
2018-06-01T15:31:28.910Z,23.63
2018-06-01T15:33:57.725Z,22.84
2018-06-01T15:36:26.222Z,23.55
2018-06-01T15:38:54.745Z,23.08
2018-06-01T15:41:23.318Z,22.60
2018-06-01T15:43:52.614Z,23.18
2018-06-01T15:46:21.914Z,22.79
2018-06-01T15:48:51.798Z,23.22
2018-06-01T15:51:20.592Z,23.73
2018-06-01T15:53:49.893Z,23.77
2018-06-01T15:56:20.720Z,22.41
2018-06-01T15:58:49.273Z,22.66
2018-06-01T16:01:17.801Z,22.27
2018-06-01T16:03:46.618Z,20.37
2018-06-01T16:06:15.234Z,20.67
2018-06-01T16:08:43.754Z,21.37
2018-06-01T16:11:12.654Z,22.64
2018-06-01T16:13:42.031Z,21.67
2018-06-01T16:16:10.562Z,22.18
2018-06-01T16:18:39.125Z,22.27
2018-06-01T16:21:08.704Z,23.40
2018-06-01T16:23:37.391Z,24.10
2018-06-01T16:26:06.214Z,24.74
2018-06-01T16:28:35.595Z,24.28
2018-06-01T16:31:04.150Z,25.95
2018-06-01T16:33:33.090Z,24.36
2018-06-01T16:36:02.425Z,24.80
2018-06-01T16:38:30.938Z,24.52
2018-06-01T16:41:00.249Z,25.25
2018-06-01T16:43:28.846Z,27.46
2018-06-01T16:45:58.942Z,29.40
2018-06-01T16:48:27.523Z,29.79
2018-06-01T16:50:56.042Z,30.56
2018-06-01T16:53:25.515Z,31.74
2018-06-01T16:55:55.160Z,32.41
2018-06-01T16:58:23.690Z,32.92
2018-06-01T17:00:52.366Z,33.81
2018-06-01T17:03:21.274Z,35.08
2018-06-01T17:05:50.003Z,35.36
2018-06-01T17:08:18.753Z,37.04
2018-06-01T17:10:47.838Z,38.59
2018-06-01T17:13:16.537Z,39.09
2018-06-01T17:15:45.039Z,39.77
2018-06-01T17:18:13.578Z,39.49
2018-06-01T17:20:42.122Z,39.85
2018-06-01T17:23:11.487Z,40.09
2018-06-01T17:25:40.362Z,41.22
2018-06-01T17:28:08.951Z,41.83
2018-06-01T17:30:37.689Z,43.30
2018-06-01T17:33:06.358Z,42.43
2018-06-01T17:35:35.634Z,43.23
2018-06-01T17:38:04.404Z,44.02
2018-06-01T17:40:33.384Z,41.89
2018-06-01T17:43:01.958Z,42.35
2018-06-01T17:45:30.670Z,41.41
2018-06-01T17:47:59.643Z,40.47
2018-06-01T17:50:28.146Z,39.85
2018-06-01T17:52:56.640Z,40.27
2018-06-01T17:55:25.773Z,39.73
2018-06-01T17:57:54.281Z,39.40
2018-06-01T18:00:22.794Z,39.27
2018-06-01T18:02:51.502Z,39.00
2018-06-01T18:05:19.998Z,38.36
2018-06-01T18:07:49.262Z,38.86
2018-06-01T18:10:17.974Z,38.39
2018-06-01T18:12:46.474Z,38.53
2018-06-01T18:15:15.145Z,38.35
2018-06-01T18:17:44.465Z,38.29
2018-06-01T18:20:13.189Z,38.59
2018-06-01T18:22:41.748Z,38.61
2018-06-01T18:25:11.214Z,38.01
2018-06-01T18:27:40.632Z,38.21
2018-06-01T18:30:10.080Z,37.85
2018-06-01T18:32:38.614Z,38.23
2018-06-01T18:35:08.065Z,38.64
2018-06-01T18:37:36.759Z,39.05
2018-06-01T18:40:05.338Z,40.23
2018-06-01T18:42:33.837Z,39.99
2018-06-01T18:45:02.479Z,40.23
2018-06-01T18:47:31.225Z,40.06
2018-06-01T18:50:00.694Z,40.76
2018-06-01T18:52:29.982Z,40.63
2018-06-01T18:54:58.526Z,40.79
2018-06-01T18:57:27.046Z,40.65
2018-06-01T18:59:55.534Z,40.83
2018-06-01T19:02:24.089Z,41.40
2018-06-01T19:04:52.591Z,41.69
2018-06-01T19:07:21.094Z,42.72
2018-06-01T19:09:49.798Z,43.39
2018-06-01T19:12:18.306Z,43.82
2018-06-01T19:14:47.574Z,44.03
2018-06-01T19:17:16.298Z,44.46
2018-06-01T19:19:44.789Z,44.95
2018-06-01T19:22:13.285Z,45.51
2018-06-01T19:24:41.983Z,45.92
2018-06-01T19:27:10.646Z,47.01
2018-06-01T19:29:39.202Z,47.33
2018-06-01T19:32:07.761Z,48.02
2018-06-01T19:34:37.090Z,48.60
2018-06-01T19:37:06.366Z,48.51
2018-06-01T19:39:35.391Z,47.73
2018-06-01T19:42:03.901Z,48.07
2018-06-01T19:44:32.704Z,49.31
2018-06-01T19:47:01.265Z,52.83
2018-06-01T19:49:31.802Z,53.40
2018-06-01T19:52:00.310Z,54.38
2018-06-01T19:54:29.114Z,55.07
2018-06-01T19:56:58.373Z,56.55
2018-06-01T19:59:26.918Z,56.49
2018-06-01T20:01:56.398Z,55.48
2018-06-01T20:04:25.667Z,55.10
2018-06-01T20:06:54.344Z,55.40
2018-06-01T20:09:23.246Z,55.06
2018-06-01T20:11:51.846Z,55.04
2018-06-01T20:14:20.347Z,55.11
2018-06-01T20:16:49.910Z,55.38
2018-06-01T20:19:18.587Z,55.97
2018-06-01T20:21:47.090Z,56.17
2018-06-01T20:24:15.666Z,56.59
2018-06-01T20:26:44.166Z,57.22
2018-06-01T20:29:13.470Z,58.29
2018-06-01T20:31:42.974Z,59.48
2018-06-01T20:34:11.729Z,60.83
2018-06-01T20:36:40.234Z,61.21
2018-06-01T20:39:08.930Z,62.96
2018-06-01T20:41:37.479Z,63.86
2018-06-01T20:44:06.475Z,63.93
2018-06-01T20:46:35.401Z,64.43
2018-06-01T20:49:04.150Z,64.26
2018-06-01T20:51:32.655Z,64.21
2018-06-01T20:54:01.618Z,64.80
2018-06-01T20:56:30.130Z,65.42
2018-06-01T20:58:58.646Z,66.28
2018-06-01T21:01:27.368Z,67.00
2018-06-01T21:03:55.878Z,66.35
2018-06-01T21:06:24.530Z,66.78
2018-06-01T21:08:53.257Z,67.44
2018-06-01T21:11:21.757Z,67.68
2018-06-01T21:13:51.102Z,67.61
2018-06-01T21:16:19.762Z,67.26
2018-06-01T21:18:48.261Z,67.78
2018-06-01T21:21:16.856Z,68.15
2018-06-01T21:23:45.545Z,68.19
2018-06-01T21:26:14.046Z,68.54
2018-06-01T21:28:42.559Z,68.89
2018-06-01T21:31:11.874Z,68.95
2018-06-01T21:33:40.385Z,68.62
2018-06-01T21:36:09.067Z,68.38
2018-06-01T21:38:37.834Z,67.62
2018-06-01T21:41:06.546Z,67.94
2018-06-01T21:43:35.057Z,68.32
2018-06-01T21:46:03.849Z,68.01
2018-06-01T21:48:32.357Z,68.14
2018-06-01T21:51:00.870Z,68.12
2018-06-01T21:53:29.430Z,67.27
2018-06-01T21:55:57.929Z,67.23
2018-06-01T21:58:26.461Z,67.42
2018-06-01T22:00:55.914Z,67.12
2018-06-01T22:03:24.424Z,67.52
2018-06-01T22:05:52.926Z,67.34
2018-06-01T22:08:21.502Z,67.16
2018-06-01T22:10:50.257Z,67.42
2018-06-01T22:13:18.766Z,66.70
2018-06-01T22:15:47.483Z,66.53
2018-06-01T22:18:15.994Z,66.80
2018-06-01T22:20:44.646Z,66.87
2018-06-01T22:23:13.205Z,67.28
2018-06-01T22:25:41.865Z,67.29
2018-06-01T22:28:10.377Z,67.91
2018-06-01T22:30:40.195Z,67.96
2018-06-01T22:33:09.466Z,68.15
2018-06-01T22:35:38.009Z,68.15
2018-06-01T22:38:06.553Z,67.94
2018-06-01T22:40:35.057Z,68.13
2018-06-01T22:43:04.381Z,67.71
2018-06-01T22:45:33.334Z,67.58
2018-06-01T22:48:02.602Z,68.45
2018-06-01T22:50:31.287Z,68.63
2018-06-01T22:52:59.850Z,68.90
2018-06-01T22:55:28.369Z,68.99
2018-06-01T22:57:56.874Z,69.81
2018-06-01T23:13:48.361Z,70.57
2018-06-01T23:16:16.875Z,70.06
2018-06-01T23:18:45.378Z,70.16
2018-06-01T23:21:14.109Z,70.19
2018-06-01T23:23:42.866Z,69.13
2018-06-01T23:26:11.373Z,68.36
2018-06-01T23:28:40.027Z,67.63
2018-06-01T23:31:08.714Z,67.98
2018-06-01T23:33:37.217Z,68.18
2018-06-01T23:36:05.767Z,69.06
2018-06-01T23:38:34.463Z,69.07
2018-06-01T23:41:03.149Z,68.69
2018-06-01T23:43:32.964Z,68.85
2018-06-01T23:46:01.462Z,68.52
2018-06-01T23:48:31.471Z,69.11
2018-06-01T23:51:00.186Z,69.73
2018-06-01T23:53:28.685Z,69.49
2018-06-01T23:55:58.122Z,70.15
2018-06-01T23:58:26.854Z,71.27
